Time;durP1;ratioP1;P1;durP2;ratioP2;P2;SDS_P1;SDS_P2;PMS_P1;PMS_P2;Temp;Humidity;BMP_temperature;BMP_pressure;BME280_temperature;BME280_humidity;BME280_pressure;Samples;Min_cycle;Max_cycle;Signal;HPM_P1;HPM_P2
2020/12/23 00:00:18;;;;;;;15.43;8.48;;;8.90;99.90;;;;;;5049869;28;20029;-86
2020/12/23 00:02:44;;;;;;;14.93;9.13;;;8.90;99.90;;;;;;5049488;28;20036;-88
2020/12/23 00:05:14;;;;;;;13.75;8.90;;;8.90;99.90;;;;;;5067409;23;20048;-87
2020/12/23 00:07:41;;;;;;;12.23;8.02;;;8.90;99.90;;;;;;5066548;28;20052;-87
2020/12/23 00:10:07;;;;;;;12.50;8.13;;;8.80;99.90;;;;;;5033115;28;20037;-87
2020/12/23 00:12:34;;;;;;;13.90;8.05;;;8.90;99.90;;;;;;5049578;28;20032;-87
2020/12/23 00:15:00;;;;;;;14.10;8.35;;;8.90;99.90;;;;;;5049522;28;20488;-87
2020/12/23 00:17:25;;;;;;;16.17;9.23;;;8.90;99.90;;;;;;5032605;28;20037;-89
2020/12/23 00:19:51;;;;;;;16.63;9.35;;;8.90;99.90;;;;;;5049700;28;20029;-88
2020/12/23 00:22:17;;;;;;;16.08;9.20;;;8.90;99.90;;;;;;5049227;28;20120;-87
2020/12/23 00:24:43;;;;;;;16.90;8.75;;;8.90;99.90;;;;;;5049241;28;20568;-88
2020/12/23 00:27:09;;;;;;;17.98;8.68;;;8.90;99.90;;;;;;5032383;28;20037;-87
2020/12/23 00:29:35;;;;;;;16.35;8.98;;;9.00;99.90;;;;;;5049178;28;20066;-87
2020/12/23 00:32:01;;;;;;;16.23;9.07;;;9.00;99.90;;;;;;5065817;28;20059;-87
2020/12/23 00:34:27;;;;;;;12.13;7.85;;;8.90;99.90;;;;;;5049342;28;20036;-87
2020/12/23 00:36:58;;;;;;;15.02;8.13;;;9.00;99.90;;;;;;5048888;28;20380;-87
2020/12/23 00:39:24;;;;;;;17.52;9.02;;;8.90;99.90;;;;;;5032480;28;20495;-87
2020/12/23 00:41:50;;;;;;;18.08;9.57;;;9.00;99.90;;;;;;5048960;28;20483;-87
2020/12/23 00:44:17;;;;;;;15.93;8.45;;;9.00;99.90;;;;;;5048838;28;20060;-87
2020/12/23 00:46:43;;;;;;;16.98;8.85;;;9.00;99.90;;;;;;5047924;28;20029;-87
2020/12/23 00:49:09;;;;;;;16.25;8.57;;;9.00;99.90;;;;;;5048716;28;20032;-86
2020/12/23 00:51:35;;;;;;;16.20;9.15;;;9.00;99.90;;;;;;5048715;28;20037;-87
2020/12/23 00:54:01;;;;;;;17.58;8.85;;;9.00;99.90;;;;;;5032240;28;20059;-87
2020/12/23 00:56:28;;;;;;;19.90;9.48;;;9.00;99.90;;;;;;5032327;28;20035;-87
2020/12/23 00:58:54;;;;;;;18.30;8.77;;;9.00;99.90;;;;;;5048853;28;20056;-88
2020/12/23 01:01:19;;;;;;;16.67;9.45;;;9.10;99.90;;;;;;5032328;28;20028;-87
2020/12/23 01:03:45;;;;;;;18.40;9.23;;;9.10;99.90;;;;;;5031875;28;20051;-87
2020/12/23 01:06:12;;;;;;;16.38;9.20;;;9.10;99.90;;;;;;5057047;23;20061;-87
2020/12/23 01:08:38;;;;;;;18.00;8.90;;;9.00;99.90;;;;;;5049177;28;20029;-87
2020/12/23 01:11:09;;;;;;;20.30;9.60;;;9.00;99.90;;;;;;5049054;28;20051;-86
2020/12/23 01:13:34;;;;;;;;;;;9.10;99.90;;;;;;5049630;28;20080;-86
2020/12/23 01:16:04;;;;;;;15.68;8.18;;;9.10;99.90;;;;;;5048986;28;19921;-88
2020/12/23 01:18:30;;;;;;;20.08;8.05;;;9.10;99.90;;;;;;5065448;28;20037;-87
2020/12/23 01:20:55;;;;;;;21.27;9.70;;;9.10;99.90;;;;;;5048725;28;20037;-86
2020/12/23 01:23:21;;;;;;;19.10;9.82;;;9.10;99.90;;;;;;5048745;28;20052;-87
2020/12/23 01:25:51;;;;;;;20.30;10.57;;;9.10;99.90;;;;;;5066947;28;20025;-86
2020/12/23 01:28:17;;;;;;;16.73;8.07;;;9.10;99.90;;;;;;5065393;28;20382;-87
2020/12/23 01:30:43;;;;;;;21.17;9.98;;;9.10;99.90;;;;;;5048696;28;20120;-86
2020/12/23 01:33:09;;;;;;;21.55;9.65;;;9.10;99.90;;;;;;5048772;28;20064;-86
2020/12/23 01:35:34;;;;;;;22.65;10.65;;;9.20;99.90;;;;;;5065128;28;20496;-85
2020/12/23 01:38:00;;;;;;;21.77;10.57;;;9.20;99.90;;;;;;5048585;28;20123;-87
2020/12/23 01:40:25;;;;;;;22.45;10.60;;;9.10;99.90;;;;;;5048672;28;20028;-87
2020/12/23 01:42:51;;;;;;;24.45;11.10;;;9.20;99.90;;;;;;5048452;28;20041;-87
2020/12/23 01:45:17;;;;;;;23.98;11.23;;;9.20;99.90;;;;;;5048611;28;20124;-87
2020/12/23 01:47:45;;;;;;;24.55;10.98;;;9.20;99.90;;;;;;5048365;28;20043;-87
2020/12/23 01:50:14;;;;;;;24.42;10.70;;;9.20;99.90;;;;;;5045234;28;20044;-87
2020/12/23 01:52:40;;;;;;;22.38;11.00;;;9.20;99.90;;;;;;5045245;28;20026;-86
2020/12/23 01:55:12;;;;;;;25.88;11.85;;;9.20;99.90;;;;;;5045493;28;20057;-87
2020/12/23 01:57:38;;;;;;;22.50;10.93;;;9.20;99.90;;;;;;5045177;28;20136;-86
2020/12/23 02:00:07;;;;;;;22.08;10.95;;;9.20;99.90;;;;;;5066108;28;20025;-88
2020/12/23 02:02:42;;;;;;;25.42;11.95;;;9.20;99.90;;;;;;5064997;28;20048;-87
2020/12/23 02:05:09;;;;;;;22.85;12.55;;;9.20;99.90;;;;;;5048741;28;20188;-87
2020/12/23 02:07:35;;;;;;;24.77;11.43;;;9.30;99.90;;;;;;5048725;28;20039;-87
2020/12/23 02:10:03;;;;;;;23.00;11.63;;;9.30;99.90;;;;;;5048613;28;20116;-86
2020/12/23 02:12:29;;;;;;;26.00;11.43;;;9.30;99.90;;;;;;5048392;28;20037;-87
2020/12/23 02:14:56;;;;;;;24.55;11.20;;;9.30;99.90;;;;;;5067186;28;20033;-87
2020/12/23 02:17:23;;;;;;;25.02;11.82;;;9.30;99.90;;;;;;5051534;28;20033;-87
2020/12/23 02:19:51;;;;;;;24.45;11.65;;;9.30;99.90;;;;;;5051680;28;20029;-87
2020/12/23 02:22:23;;;;;;;26.50;11.57;;;9.30;99.90;;;;;;5068240;28;20108;-87
2020/12/23 02:24:51;;;;;;;28.02;11.90;;;9.30;99.90;;;;;;5050775;28;20558;-87
2020/12/23 02:27:18;;;;;;;31.45;12.57;;;9.30;99.90;;;;;;5034817;28;20036;-87
2020/12/23 02:29:45;;;;;;;27.85;12.40;;;9.40;99.90;;;;;;5034928;28;20033;-87
2020/12/23 02:32:11;;;;;;;33.70;13.25;;;9.30;99.90;;;;;;5051131;28;20040;-88
2020/12/23 02:34:37;;;;;;;31.60;13.52;;;9.40;99.90;;;;;;5051497;28;20037;-87
2020/12/23 02:37:04;;;;;;;39.05;15.65;;;9.30;99.90;;;;;;5034855;28;20157;-87
2020/12/23 02:39:30;;;;;;;42.70;15.57;;;9.40;99.90;;;;;;5067781;28;20033;-87
2020/12/23 02:41:57;;;;;;;45.35;14.90;;;9.40;99.90;;;;;;5051130;28;20377;-87
2020/12/23 02:44:22;;;;;;;45.85;14.88;;;9.40;99.90;;;;;;5034480;28;20029;-87
2020/12/23 02:46:56;;;;;;;51.33;15.27;;;9.40;99.90;;;;;;5051084;28;20041;-87
2020/12/23 02:49:23;;;;;;;48.60;16.90;;;9.50;99.90;;;;;;5034537;28;20025;-87
2020/12/23 02:51:48;;;;;;;50.20;16.50;;;9.40;99.90;;;;;;5031176;28;20029;-87
2020/12/23 02:54:14;;;;;;;50.67;16.10;;;9.40;99.90;;;;;;5031363;28;20029;-87
2020/12/23 02:56:40;;;;;;;62.38;16.20;;;9.40;99.90;;;;;;5030912;28;20030;-87
2020/12/23 02:59:06;;;;;;;52.67;15.93;;;9.50;99.90;;;;;;5031099;28;20033;-86
2020/12/23 03:01:31;;;;;;;59.17;16.13;;;9.50;99.90;;;;;;5030914;28;20040;-87
2020/12/23 03:04:17;;;;;;;56.05;16.88;;;9.50;99.90;;;;;;5030550;28;20069;-87
2020/12/23 03:06:43;;;;;;;48.42;17.27;;;9.50;99.90;;;;;;4935980;29;20044;-86
2020/12/23 03:09:10;;;;;;;56.00;17.23;;;9.50;99.90;;;;;;4954604;28;20540;-88
2020/12/23 03:11:37;;;;;;;56.17;15.85;;;9.40;99.90;;;;;;4954747;28;20084;-87
2020/12/23 03:14:03;;;;;;;53.25;17.15;;;9.50;99.90;;;;;;4955315;28;20043;-87
2020/12/23 03:16:30;;;;;;;49.58;15.93;;;9.50;99.90;;;;;;4968100;28;20027;-86
2020/12/23 03:18:56;;;;;;;52.90;16.85;;;9.50;99.90;;;;;;4936062;29;20115;-87
2020/12/23 03:21:22;;;;;;;46.25;16.48;;;9.50;99.90;;;;;;4936111;29;20027;-87
2020/12/23 03:23:48;;;;;;;49.40;16.40;;;9.50;99.90;;;;;;4936104;29;20066;-87
2020/12/23 03:26:13;;;;;;;49.17;15.77;;;9.50;99.90;;;;;;4951947;29;20034;-87
2020/12/23 03:28:39;;;;;;;43.33;14.23;;;9.50;99.90;;;;;;4951912;29;20035;-87
2020/12/23 03:31:05;;;;;;;44.40;15.80;;;9.50;99.90;;;;;;4951608;29;20035;-87
2020/12/23 03:33:31;;;;;;;50.28;17.15;;;9.60;99.90;;;;;;4951802;29;20043;-87
2020/12/23 03:35:58;;;;;;;45.78;15.60;;;9.50;99.90;;;;;;4935770;29;20057;-89
2020/12/23 03:38:23;;;;;;;47.90;15.32;;;9.60;99.90;;;;;;4935671;29;20051;-87
2020/12/23 03:40:49;;;;;;;51.88;16.73;;;9.60;99.90;;;;;;4951796;29;20046;-87
2020/12/23 03:43:15;;;;;;;42.60;15.93;;;9.60;99.90;;;;;;4960057;28;20046;-87
2020/12/23 03:45:40;;;;;;;43.47;15.80;;;9.60;99.90;;;;;;5063324;28;20080;-87
2020/12/23 03:48:06;;;;;;;44.20;15.65;;;9.60;99.90;;;;;;5046819;28;20045;-87
2020/12/23 03:50:32;;;;;;;47.05;15.88;;;9.50;99.90;;;;;;5056104;28;20025;-87
2020/12/23 03:52:58;;;;;;;39.45;14.73;;;9.60;99.90;;;;;;5066765;28;20037;-87
2020/12/23 03:55:24;;;;;;;48.45;14.55;;;9.60;99.90;;;;;;5066671;28;20029;-87
2020/12/23 03:57:49;;;;;;;44.47;15.20;;;9.60;99.90;;;;;;5050031;28;20033;-86
2020/12/23 04:00:15;;;;;;;39.80;14.02;;;9.60;99.90;;;;;;5066573;28;20037;-87
2020/12/23 04:02:41;;;;;;;33.47;13.73;;;9.70;99.90;;;;;;5050126;28;20087;-87
2020/12/23 04:05:07;;;;;;;34.88;13.45;;;9.60;99.90;;;;;;5066405;28;20032;-87
2020/12/23 04:07:33;;;;;;;43.95;13.10;;;9.60;99.90;;;;;;5051043;28;20041;-87
2020/12/23 04:09:59;;;;;;;32.08;13.73;;;9.70;99.90;;;;;;5049625;28;20052;-86
2020/12/23 04:12:25;;;;;;;32.22;13.43;;;9.60;99.90;;;;;;5066242;28;20097;-86
2020/12/23 04:14:51;;;;;;;41.58;14.85;;;9.60;99.90;;;;;;5066079;28;20041;-86
2020/12/23 04:17:17;;;;;;;32.55;13.63;;;9.70;99.90;;;;;;5049689;28;20238;-86
2020/12/23 04:19:42;;;;;;;31.38;13.52;;;9.70;99.90;;;;;;5066532;28;20177;-86
2020/12/23 04:22:08;;;;;;;30.80;12.15;;;9.60;99.90;;;;;;5049259;28;20055;-87
2020/12/23 04:24:34;;;;;;;29.27;12.82;;;9.70;99.90;;;;;;5049334;28;20160;-86
2020/12/23 04:26:59;;;;;;;33.40;13.40;;;9.70;99.90;;;;;;5049251;28;20033;-87
2020/12/23 04:29:25;;;;;;;31.88;13.88;;;9.80;99.90;;;;;;5049387;28;20033;-86
2020/12/23 04:31:50;;;;;;;30.33;13.45;;;9.80;99.90;;;;;;5049063;28;20032;-86
2020/12/23 04:34:16;;;;;;;38.08;14.23;;;9.80;99.90;;;;;;5049126;28;20029;-87
2020/12/23 04:36:42;;;;;;;29.17;12.88;;;9.80;99.90;;;;;;5049065;28;20091;-86
2020/12/23 04:39:08;;;;;;;29.95;12.00;;;9.80;99.90;;;;;;5049155;28;20059;-86
2020/12/23 04:41:35;;;;;;;33.13;13.63;;;9.90;99.90;;;;;;5065563;28;20029;-87
2020/12/23 04:44:05;;;;;;;24.65;11.05;;;9.90;99.90;;;;;;5048839;28;20037;-86
2020/12/23 04:46:35;;;;;;;;;;;10.00;99.90;;;;;;5049262;28;20036;-86
2020/12/23 04:49:02;;;;;;;26.10;10.90;;;10.00;99.90;;;;;;5049047;28;19916;-86
2020/12/23 04:51:33;;;;;;;24.50;11.00;;;10.00;99.90;;;;;;5048447;28;20029;-86
2020/12/23 04:54:00;;;;;;;32.33;12.45;;;10.00;99.90;;;;;;5032392;28;20029;-87
2020/12/23 04:56:28;;;;;;;29.23;13.20;;;10.10;99.90;;;;;;5032332;28;20105;-87
2020/12/23 04:58:56;;;;;;;28.48;12.35;;;10.10;99.90;;;;;;5032260;28;20097;-87
2020/12/23 05:01:22;;;;;;;29.08;12.77;;;10.10;99.90;;;;;;5032091;28;20055;-87
2020/12/23 05:03:48;;;;;;;29.13;13.63;;;10.10;99.90;;;;;;5032001;28;20052;-86
2020/12/23 05:06:14;;;;;;;33.40;13.93;;;10.10;99.90;;;;;;5031601;28;20049;-87
2020/12/23 05:08:40;;;;;;;31.15;13.65;;;10.10;99.90;;;;;;5048571;28;20039;-87
2020/12/23 05:11:07;;;;;;;31.27;13.18;;;10.10;99.90;;;;;;5031978;28;20119;-86
2020/12/23 05:13:33;;;;;;;32.08;13.13;;;10.10;99.90;;;;;;5032327;28;20033;-87
2020/12/23 05:15:59;;;;;;;27.83;13.27;;;10.10;99.90;;;;;;5031841;28;20027;-86
2020/12/23 05:18:38;;;;;;;28.65;12.82;;;10.10;99.90;;;;;;5031960;28;20467;-87
2020/12/23 05:21:14;;;;;;;22.02;10.95;;;10.10;99.90;;;;;;5031514;28;20039;-87
2020/12/23 05:23:45;;;;;;;23.83;12.20;;;10.10;99.90;;;;;;5031859;28;20036;-87
2020/12/23 05:26:12;;;;;;;26.00;12.05;;;10.20;99.90;;;;;;5048309;28;20049;-87
2020/12/23 05:28:40;;;;;;;27.45;12.82;;;10.20;99.90;;;;;;5048558;28;20041;-88
2020/12/23 05:31:07;;;;;;;30.00;12.93;;;10.10;99.90;;;;;;5048054;28;20052;-87
2020/12/23 05:33:34;;;;;;;25.85;12.38;;;10.10;99.90;;;;;;5031378;28;20060;-88
2020/12/23 05:36:01;;;;;;;21.92;11.63;;;10.20;99.90;;;;;;5047712;28;20048;-88
2020/12/23 05:38:29;;;;;;;23.42;11.75;;;10.20;99.90;;;;;;5031658;28;20033;-88
2020/12/23 05:40:56;;;;;;;23.75;10.75;;;10.20;99.90;;;;;;5048185;28;20033;-88
2020/12/23 05:43:25;;;;;;;21.17;10.10;;;10.20;99.90;;;;;;5046174;28;20191;-87
2020/12/23 05:45:54;;;;;;;20.10;10.20;;;10.20;99.90;;;;;;5030815;28;20028;-86
2020/12/23 05:48:19;;;;;;;19.85;10.85;;;10.20;99.90;;;;;;5032774;28;20420;-86
2020/12/23 05:50:45;;;;;;;21.80;10.68;;;10.20;99.90;;;;;;5047712;28;20088;-86
2020/12/23 05:53:15;;;;;;;20.80;10.38;;;10.20;99.90;;;;;;5047964;28;20056;-86
2020/12/23 05:55:45;;;;;;;19.48;10.50;;;10.20;99.90;;;;;;5048041;28;20048;-85
2020/12/23 05:58:24;;;;;;;19.42;9.82;;;10.30;99.90;;;;;;5047742;28;20033;-85
2020/12/23 06:00:55;;;;;;;17.50;9.85;;;10.30;99.90;;;;;;5064052;28;20037;-87
2020/12/23 06:03:46;;;;;;;21.30;10.52;;;10.30;99.90;;;;;;5064165;28;20036;-87
2020/12/23 06:06:12;;;;;;;15.43;9.48;;;10.30;99.90;;;;;;5058322;23;20147;-85
2020/12/23 06:08:39;;;;;;;17.60;8.73;;;10.30;99.90;;;;;;5084705;28;20032;-85
2020/12/23 06:11:23;;;;;;;20.92;10.93;;;10.30;99.90;;;;;;5068162;28;20071;-86
2020/12/23 06:14:00;;;;;;;18.65;9.02;;;10.30;99.90;;;;;;5051351;28;20033;-85
2020/12/23 06:16:30;;;;;;;17.77;9.50;;;10.30;99.90;;;;;;5051480;28;20036;-85
2020/12/23 06:19:01;;;;;;;17.33;9.73;;;10.40;99.90;;;;;;5051466;28;20036;-84
2020/12/23 06:21:28;;;;;;;15.82;8.60;;;10.40;99.90;;;;;;5058817;28;20119;-84
2020/12/23 06:24:13;;;;;;;14.18;8.40;;;10.40;99.90;;;;;;5042153;28;20480;-85
2020/12/23 06:26:44;;;;;;;14.82;7.60;;;10.40;99.90;;;;;;5061872;28;20431;-85
2020/12/23 06:29:14;;;;;;;12.45;7.15;;;10.40;99.90;;;;;;5056116;28;20061;-84
2020/12/23 06:31:47;;;;;;;8.70;5.30;;;10.40;99.90;;;;;;5045638;28;20035;-85
2020/12/23 06:34:15;;;;;;;9.65;5.57;;;10.50;99.90;;;;;;5048387;28;20028;-85
2020/12/23 06:36:41;;;;;;;9.77;5.93;;;10.50;99.90;;;;;;5050977;28;20029;-85
2020/12/23 06:39:23;;;;;;;8.82;5.10;;;10.50;99.90;;;;;;5050921;28;20348;-85
2020/12/23 06:41:50;;;;;;;11.02;5.47;;;10.60;99.90;;;;;;5050664;28;20025;-85
2020/12/23 06:44:16;;;;;;;9.38;5.78;;;10.60;99.90;;;;;;5047020;28;20048;-85
2020/12/23 06:47:05;;;;;;;9.80;5.60;;;10.70;99.90;;;;;;5072032;28;20029;-85
2020/12/23 06:49:43;;;;;;;9.20;4.70;;;10.70;99.90;;;;;;5054519;28;20037;-85
2020/12/23 06:54:54;;;;;;;9.35;5.22;;;10.70;99.90;;;;;;5078227;28;20333;-84
2020/12/23 06:57:38;;;;;;;8.05;5.18;;;10.80;99.90;;;;;;5086629;28;20036;-85
2020/12/23 07:00:21;;;;;;;8.50;5.78;;;10.70;99.90;;;;;;5074232;28;20131;-84
2020/12/23 07:02:49;;;;;;;6.20;4.18;;;10.80;99.90;;;;;;5084660;28;20113;-85
2020/12/23 07:05:20;;;;;;;7.78;5.85;;;10.90;99.90;;;;;;5052735;28;20116;-85
2020/12/23 07:07:47;;;;;;;10.20;7.20;;;10.90;99.90;;;;;;5068633;28;20035;-85
2020/12/23 07:10:17;;;;;;;10.65;8.32;;;11.00;99.90;;;;;;5058071;28;20054;-85
2020/12/23 07:13:03;;;;;;;14.85;10.88;;;11.00;99.90;;;;;;5103292;28;20052;-85
2020/12/23 07:15:31;;;;;;;14.00;10.10;;;11.10;99.90;;;;;;5069038;28;20457;-85
2020/12/23 07:18:15;;;;;;;9.35;6.75;;;11.10;99.90;;;;;;5044372;28;20033;-86
2020/12/23 07:20:50;;;;;;;9.40;5.65;;;11.10;99.90;;;;;;5050368;28;20495;-85
2020/12/23 07:23:20;;;;;;;8.38;5.88;;;11.10;99.90;;;;;;5060559;28;20040;-85
2020/12/23 07:25:51;;;;;;;7.10;5.07;;;11.20;99.90;;;;;;5070521;28;20036;-86
2020/12/23 07:28:23;;;;;;;6.55;4.88;;;11.20;99.90;;;;;;5053453;28;20048;-85
2020/12/23 07:30:49;;;;;;;9.15;6.55;;;11.20;99.90;;;;;;5053673;28;20047;-86
2020/12/23 07:33:18;;;;;;;7.30;5.68;;;11.20;99.90;;;;;;5050076;28;20049;-85
2020/12/23 07:35:56;;;;;;;10.77;7.87;;;11.20;99.90;;;;;;5047705;28;20032;-85
2020/12/23 07:38:23;;;;;;;9.57;6.55;;;11.30;99.90;;;;;;5053020;28;20282;-84
2020/12/23 07:40:50;;;;;;;6.97;6.00;;;11.30;99.90;;;;;;5070044;28;20067;-85
2020/12/23 07:43:17;;;;;;;9.30;6.20;;;11.30;99.90;;;;;;5069819;28;20040;-85
2020/12/23 07:45:43;;;;;;;8.38;5.30;;;11.30;99.90;;;;;;5053357;28;20096;-85
2020/12/23 07:48:20;;;;;;;7.03;5.40;;;11.20;99.90;;;;;;5069827;28;20036;-85
2020/12/23 07:50:50;;;;;;;7.35;5.57;;;11.20;99.90;;;;;;5052864;28;20400;-85
2020/12/23 07:53:16;;;;;;;5.90;4.90;;;11.30;99.90;;;;;;5073813;28;20028;-85
2020/12/23 07:55:44;;;;;;;7.85;5.13;;;11.20;99.90;;;;;;5085812;28;20116;-85
2020/12/23 07:58:10;;;;;;;7.43;5.32;;;11.20;99.90;;;;;;5069348;28;20088;-86
2020/12/23 08:00:38;;;;;;;7.60;5.97;;;11.20;99.90;;;;;;5052758;28;20025;-85
2020/12/23 08:03:05;;;;;;;10.10;6.30;;;11.30;99.90;;;;;;5069557;28;20033;-85
2020/12/23 08:05:31;;;;;;;8.23;6.43;;;11.30;99.90;;;;;;5069179;28;20049;-85
2020/12/23 08:07:56;;;;;;;8.18;6.45;;;11.30;99.90;;;;;;5069353;28;20128;-85
2020/12/23 08:10:22;;;;;;;5.40;4.28;;;11.40;99.90;;;;;;5052615;28;20029;-85
2020/12/23 08:12:54;;;;;;;6.88;5.00;;;11.30;99.90;;;;;;5051998;28;20037;-85
2020/12/23 08:15:20;;;;;;;7.68;5.82;;;11.30;99.90;;;;;;5069439;28;20036;-85
2020/12/23 08:17:45;;;;;;;6.25;5.20;;;11.40;99.90;;;;;;5052529;28;20024;-85
2020/12/23 08:20:16;;;;;;;6.80;4.80;;;11.40;99.90;;;;;;5052698;28;20037;-85
2020/12/23 08:22:43;;;;;;;8.75;5.32;;;11.40;99.90;;;;;;5068703;28;20033;-85
2020/12/23 08:25:17;;;;;;;6.35;5.05;;;11.40;99.90;;;;;;5068605;28;20043;-85
2020/12/23 08:27:44;;;;;;;5.47;4.38;;;11.40;99.90;;;;;;5069269;28;20630;-86
2020/12/23 08:30:16;;;;;;;5.47;3.55;;;11.40;99.90;;;;;;5082830;28;20032;-84
2020/12/23 08:33:02;;;;;;;5.55;4.07;;;11.40;99.90;;;;;;5088903;28;20024;-84
2020/12/23 08:35:30;;;;;;;4.60;3.22;;;11.40;99.90;;;;;;5089020;28;20028;-85
2020/12/23 08:37:56;;;;;;;5.28;3.85;;;11.40;99.90;;;;;;5072097;28;20057;-84
2020/12/23 08:40:21;;;;;;;5.80;4.20;;;11.30;99.90;;;;;;5071646;28;20048;-84
2020/12/23 08:42:54;;;;;;;5.15;4.03;;;11.40;99.90;;;;;;5088415;28;20222;-85
2020/12/23 08:45:22;;;;;;;4.50;3.67;;;11.40;99.90;;;;;;5066135;28;20063;-84
2020/12/23 08:47:49;;;;;;;5.68;3.58;;;11.40;99.90;;;;;;5051274;28;20043;-84
2020/12/23 08:50:19;;;;;;;4.38;3.70;;;11.30;99.90;;;;;;5068038;28;20182;-84
2020/12/23 08:52:46;;;;;;;4.85;3.85;;;11.40;99.90;;;;;;5051401;28;20043;-84
2020/12/23 08:55:20;;;;;;;5.28;3.92;;;11.30;99.90;;;;;;5068371;28;20037;-85
2020/12/23 08:57:46;;;;;;;4.68;3.45;;;11.30;99.90;;;;;;5067893;28;20123;-84
2020/12/23 09:00:17;;;;;;;4.18;3.65;;;11.40;99.90;;;;;;5084777;28;20040;-85
2020/12/23 09:02:45;;;;;;;4.70;3.10;;;11.40;99.90;;;;;;5051084;28;20048;-85
2020/12/23 09:05:28;;;;;;;5.45;4.95;;;11.40;99.90;;;;;;5050872;28;20064;-85
2020/12/23 09:08:07;;;;;;;4.97;4.18;;;11.40;99.90;;;;;;5066750;28;20032;-84
2020/12/23 09:10:35;;;;;;;5.45;4.00;;;11.40;99.90;;;;;;5067751;28;20055;-85
2020/12/23 09:13:09;;;;;;;4.18;3.05;;;11.40;99.90;;;;;;5064923;28;20033;-85
2020/12/23 09:15:36;;;;;;;4.72;3.35;;;11.40;99.90;;;;;;5058425;28;20021;-86
2020/12/23 09:18:12;;;;;;;4.82;3.15;;;11.40;99.90;;;;;;5054984;28;20037;-85
2020/12/23 09:20:39;;;;;;;5.25;3.67;;;11.40;99.90;;;;;;5066002;28;20032;-85
2020/12/23 09:23:07;;;;;;;3.97;3.20;;;11.40;99.90;;;;;;5050272;28;20068;-85
2020/12/23 09:25:34;;;;;;;6.47;3.53;;;11.40;99.90;;;;;;5050276;28;20028;-85
2020/12/23 09:28:11;;;;;;;3.72;3.10;;;11.40;99.90;;;;;;5049866;28;20068;-87
2020/12/23 09:30:38;;;;;;;4.32;2.80;;;11.40;99.90;;;;;;5049078;28;20098;-85
2020/12/23 09:33:09;;;;;;;3.97;2.75;;;11.40;99.90;;;;;;5050385;28;20419;-84
2020/12/23 09:35:35;;;;;;;5.53;1.70;;;11.40;99.90;;;;;;5067135;28;20111;-85
2020/12/23 09:38:05;;;;;;;2.25;1.27;;;11.40;99.90;;;;;;5050402;28;20028;-84
2020/12/23 09:40:31;;;;;;;3.35;1.52;;;11.50;99.90;;;;;;5050727;28;20052;-85
2020/12/23 09:42:57;;;;;;;3.17;1.60;;;11.40;99.90;;;;;;5067218;28;20055;-85
2020/12/23 09:45:22;;;;;;;3.45;1.58;;;11.40;99.90;;;;;;5050441;28;20036;-85
2020/12/23 09:47:48;;;;;;;3.85;1.85;;;11.30;99.90;;;;;;5050113;28;20024;-84
2020/12/23 09:50:14;;;;;;;3.40;2.33;;;11.30;99.90;;;;;;5046782;28;20033;-85
2020/12/23 09:52:39;;;;;;;3.15;1.75;;;11.40;99.90;;;;;;5064068;28;20036;-85
2020/12/23 09:55:07;;;;;;;2.60;1.13;;;11.30;99.90;;;;;;5047553;28;20079;-84
2020/12/23 09:57:34;;;;;;;3.05;1.35;;;11.30;99.90;;;;;;5065815;28;20036;-85
2020/12/23 10:00:00;;;;;;;2.80;1.10;;;11.30;99.90;;;;;;5066881;28;20032;-84
2020/12/23 10:02:25;;;;;;;3.88;1.63;;;11.30;99.90;;;;;;5066650;28;20028;-85
2020/12/23 10:04:51;;;;;;;3.63;2.67;;;11.30;99.90;;;;;;5030836;28;20033;-84
2020/12/23 10:07:19;;;;;;;3.63;3.33;;;11.40;99.90;;;;;;5047325;28;20052;-84
2020/12/23 10:09:45;;;;;;;4.95;3.45;;;11.30;99.90;;;;;;5066450;28;20488;-85
2020/12/23 10:12:11;;;;;;;2.80;2.50;;;11.40;99.90;;;;;;5050626;28;20043;-85
2020/12/23 10:14:36;;;;;;;4.30;2.85;;;11.40;99.90;;;;;;5050192;28;20028;-85
2020/12/23 10:17:02;;;;;;;3.95;3.13;;;11.30;99.90;;;;;;5066965;28;20078;-85
2020/12/23 10:19:28;;;;;;;4.28;2.47;;;11.30;99.90;;;;;;5048872;28;20021;-85
2020/12/23 10:21:53;;;;;;;6.78;4.40;;;11.30;99.90;;;;;;5054494;28;20092;-85
2020/12/23 10:24:19;;;;;;;6.20;5.20;;;11.30;99.90;;;;;;5054142;28;20048;-86
2020/12/23 10:26:49;;;;;;;6.63;5.82;;;11.30;99.90;;;;;;5085617;28;20027;-85
2020/12/23 10:29:15;;;;;;;8.02;7.13;;;11.30;99.90;;;;;;5053966;28;20029;-85
2020/12/23 10:31:40;;;;;;;7.80;6.18;;;11.30;99.90;;;;;;5054259;28;20459;-84
2020/12/23 10:34:06;;;;;;;6.70;6.00;;;11.30;99.90;;;;;;5054114;28;20036;-85
2020/12/23 10:36:32;;;;;;;7.10;6.32;;;11.30;99.90;;;;;;5053967;28;20070;-86
2020/12/23 10:38:57;;;;;;;7.20;5.10;;;11.30;99.90;;;;;;5040633;28;20033;-85
2020/12/23 10:41:23;;;;;;;4.90;3.90;;;11.30;99.90;;;;;;5050533;28;20057;-85
2020/12/23 10:43:49;;;;;;;4.55;3.15;;;11.30;99.90;;;;;;5052936;28;20047;-85
2020/12/23 10:46:14;;;;;;;3.55;2.90;;;11.30;99.90;;;;;;5034197;28;20082;-85
2020/12/23 10:48:40;;;;;;;3.65;2.50;;;11.40;99.90;;;;;;5036450;28;20029;-84
2020/12/23 10:51:07;;;;;;;2.72;1.95;;;11.40;99.90;;;;;;5064582;28;20067;-85
2020/12/23 10:53:33;;;;;;;3.83;1.80;;;11.40;99.90;;;;;;5053673;28;20029;-85
2020/12/23 10:55:58;;;;;;;2.45;1.45;;;11.40;99.90;;;;;;5070418;28;20115;-84
2020/12/23 10:58:24;;;;;;;2.65;1.52;;;11.40;99.90;;;;;;5053253;28;20036;-84
2020/12/23 11:00:50;;;;;;;4.38;1.98;;;11.40;99.90;;;;;;5053790;28;20035;-85
2020/12/23 11:03:15;;;;;;;3.10;1.80;;;11.30;99.90;;;;;;5070240;28;20048;-86
2020/12/23 11:05:41;;;;;;;3.25;2.15;;;11.30;99.90;;;;;;5052981;23;20048;-84
2020/12/23 11:08:08;;;;;;;3.38;2.40;;;11.30;99.90;;;;;;5050441;28;20086;-83
2020/12/23 11:10:34;;;;;;;3.45;2.20;;;11.40;99.90;;;;;;5063048;28;20031;-84
2020/12/23 11:12:59;;;;;;;4.53;3.05;;;11.40;99.90;;;;;;5053862;28;20024;-84
2020/12/23 11:15:25;;;;;;;5.72;3.05;;;11.40;99.90;;;;;;5046867;28;20120;-84
2020/12/23 11:17:51;;;;;;;4.28;2.45;;;11.30;99.90;;;;;;5033062;28;20056;-84
2020/12/23 11:20:16;;;;;;;4.45;2.90;;;11.30;99.90;;;;;;5048123;28;20079;-84
2020/12/23 11:22:42;;;;;;;4.50;2.40;;;11.30;99.90;;;;;;5039374;28;20104;-84
2020/12/23 11:25:07;;;;;;;2.78;1.67;;;11.30;99.90;;;;;;5036918;28;20067;-84
2020/12/23 11:27:33;;;;;;;3.25;1.42;;;11.30;99.90;;;;;;5033502;28;20141;-85
2020/12/23 11:29:59;;;;;;;2.58;0.98;;;11.30;99.90;;;;;;5049707;28;20048;-85
2020/12/23 11:32:25;;;;;;;1.95;1.23;;;11.30;99.90;;;;;;5033064;28;20033;-85
2020/12/23 11:34:50;;;;;;;2.28;0.93;;;11.30;99.90;;;;;;5033573;28;20033;-84
2020/12/23 11:37:16;;;;;;;2.28;1.02;;;11.30;99.90;;;;;;5033425;28;20036;-85
2020/12/23 11:39:41;;;;;;;3.08;0.82;;;11.30;99.90;;;;;;5029696;28;20543;-85
2020/12/23 11:42:07;;;;;;;1.67;0.82;;;11.30;99.90;;;;;;5029877;28;20061;-86
2020/12/23 11:44:33;;;;;;;1.98;0.93;;;11.30;99.90;;;;;;5046021;28;20068;-86
2020/12/23 11:46:58;;;;;;;2.13;1.20;;;11.30;99.90;;;;;;5046696;28;20038;-86
2020/12/23 11:49:24;;;;;;;1.70;0.98;;;11.30;99.90;;;;;;5046281;28;20062;-86
2020/12/23 11:51:51;;;;;;;2.42;1.08;;;11.30;99.90;;;;;;5033590;28;20464;-85
2020/12/23 11:54:18;;;;;;;2.17;1.05;;;11.30;99.90;;;;;;5049214;28;20412;-85
2020/12/23 11:56:46;;;;;;;2.55;1.02;;;11.30;99.90;;;;;;5049834;28;20028;-85
2020/12/23 11:59:13;;;;;;;1.90;0.90;;;11.30;99.90;;;;;;5029024;28;20088;-85
2020/12/23 12:01:38;;;;;;;2.45;1.05;;;11.30;99.90;;;;;;5029406;28;20041;-84
2020/12/23 12:04:24;;;;;;;2.60;1.38;;;11.30;99.90;;;;;;5045701;28;20042;-84
2020/12/23 12:06:56;;;;;;;2.42;1.30;;;11.30;99.90;;;;;;4953126;28;20066;-86
2020/12/23 12:09:23;;;;;;;2.20;1.15;;;11.40;99.90;;;;;;4969183;28;20049;-87
2020/12/23 12:12:05;;;;;;;2.40;1.17;;;11.40;99.90;;;;;;4971986;28;20038;-86
2020/12/23 12:14:44;;;;;;;3.15;2.55;;;11.50;99.90;;;;;;4989828;28;20129;-85
2020/12/23 12:17:09;;;;;;;3.13;1.90;;;11.50;99.90;;;;;;4972752;28;20066;-84
2020/12/23 12:19:35;;;;;;;2.08;1.20;;;11.40;99.90;;;;;;4988016;28;20527;-84
2020/12/23 12:22:01;;;;;;;2.75;1.67;;;11.40;99.90;;;;;;4988720;28;20046;-85
2020/12/23 12:24:26;;;;;;;2.25;1.55;;;11.40;99.90;;;;;;4988558;28;20193;-85
2020/12/23 12:26:52;;;;;;;2.00;1.20;;;11.40;99.90;;;;;;4972570;28;20023;-84
2020/12/23 12:29:17;;;;;;;3.60;2.67;;;11.40;99.90;;;;;;4972610;28;20407;-84
2020/12/23 12:31:43;;;;;;;3.15;1.88;;;11.40;99.90;;;;;;4972169;28;20038;-86
2020/12/23 12:34:08;;;;;;;2.22;2.03;;;11.40;99.90;;;;;;4972297;28;20102;-86
2020/12/23 12:36:35;;;;;;;2.92;2.42;;;11.50;99.90;;;;;;4986216;28;20042;-85
2020/12/23 12:39:00;;;;;;;5.47;2.30;;;11.40;99.90;;;;;;5003959;28;20037;-85
2020/12/23 12:41:27;;;;;;;3.35;2.30;;;11.50;99.90;;;;;;4986265;28;20026;-86
2020/12/23 12:43:54;;;;;;;3.95;2.50;;;11.40;99.90;;;;;;5019082;28;20079;-85
2020/12/23 12:46:22;;;;;;;4.05;2.53;;;11.40;99.90;;;;;;5049110;28;20452;-86
2020/12/23 12:48:48;;;;;;;2.92;1.90;;;11.40;99.90;;;;;;5031768;28;20537;-86